Últimos datos


ZONA AGRICOLA ESTACIÓN FECHA TEMPERATURA (°C) HUMEDAD (%) PRECIPITACIÓN (mm) VEL. VIENTO (Km/h) PRESIÓN BAR. (mb) DIR. VIENTO (°)
Caborca CABORCA (EXPORTADORA) 2018-01-18 12:20:00 22.5 18.0 0.0 3.3 995.7 SSO
Caborca CHAPARRAL 2018-01-18 12:40:00 24.9 13.9 0.0 5.6 986.7 OSO
Caborca CUCHUJAQUI 2018-01-18 12:30:00 23.5 16.1 0.0 2.2 955.5 ONO
Caborca EL CANAN 2018-01-18 12:40:00 23.8 16.3 0.0 2.8 974.1 N
Caborca LA RIVERA 2018-01-18 12:40:00 23.8 18.2 0.0 3.5 1012.6 ENE
Caborca LOLEYTA 2018-01-18 12:40:00 24.2 15.6 0.0 7.1 1010.0 NNO
Caborca RANCHO AGUILAR 2018-01-18 12:30:00 25.1 16.8 0.0 7.3 1012.3 N
Caborca SAN LUIS 2018-01-18 12:40:00 26.4 16.4 0.0 1.8 993.7 S
Caborca SUR CABORCA (LA BARRA) 2018-01-18 12:40:00 23.8 17.8 0.0 5.5 990.5 N
Costa de Hermosillo ABEJAS 2018-01-18 12:00:00 25.5 18.1 0.0 7.4 1002.3 E
Costa de Hermosillo CHIPILON 2018-01-18 12:30:00 26.2 19.6 0.0 6.5 1004.2 O
Costa de Hermosillo CUICHI 2018-01-18 12:30:00 25.3 22.9 0.0 6.9 1021.3 N
Costa de Hermosillo DOLORES JAM 2018-01-18 12:30:00 25.6 23.0 0.0 6.2 1011.0 NNO
Costa de Hermosillo EL BERVANO 2018-01-18 12:30:00 26.0 21.1 0.0 4.6 NO
Costa de Hermosillo EL ROSARIO 2018-01-18 12:20:00 25.9 19.9 0.0 4.1 N
Costa de Hermosillo GREEN STRIPE 2018-01-18 12:30:00 25.9 19.0 0.0 6.2 1008.4 SO
Costa de Hermosillo KINO 2018-01-18 12:20:00 24.7 29.3 0.0 6.6 1012.5 NO
Costa de Hermosillo LA BACHATA 2018-01-18 12:30:00 26.0 19.2 0.0 6.9 NNE
Costa de Hermosillo PEAÑA 2018-01-18 12:30:00 25.8 20.1 0.0 7.8 1009.2 NO
Costa de Hermosillo SAHUARAL (AGUA DULCE) 2018-01-18 12:40:00 24.9 25.9 0.0 10.1 1012.7 ONO
Costa de Hermosillo SAN CARLITOS 2018-01-18 12:30:00 26.4 16.4 0.0 8.6 1007.1 NE
Costa de Hermosillo SANTA ELENA 2018-01-18 12:30:00 25.1 20.6 0.0 7.6 1011.3 N
Costa de Hermosillo SANTO NIÑO 2018-01-18 12:20:00 26.8 15.6 0.0 7.4 999.8 E
Fuerte Mayo EJ. 21 DE MARZO 2018-01-18 12:30:00 26.3 43.2 0.0 7.2 1009.7 OSO
Fuerte Mayo TOTOLIBOQUI 2018-01-18 12:00:00 24.5 52.2 0.0 8.0 1011.4 SO
Guaymas Empalme BUENOS AIRES GYM 2018-01-18 11:50:00 26.0 31.3 0.0 11.1 1014.3 OSO
Guaymas Empalme CAMPO SELZA 2018-01-18 12:30:00 26.5 29.3 0.0 14.2 1010.1 SO
Guaymas Empalme LAS TREINTA 2018-01-18 12:30:00 28.8 18.6 0.0 5.4 994.5 O
Guaymas Empalme ORTIZ (LA CAMPANA) 2018-01-18 12:30:00 28.3 15.7 0.0 7.4 1000.7 SSO
Guaymas Empalme SANTA MARIA (ESTABLO FATIMA) 2018-01-18 12:00:00 27.2 19.7 0.0 6.0 1008.7 SSE
Pesqueira SELVA 2018-01-18 12:30:00 25.6 16.4 0.0 5.0 969.7 ESE
Pesqueira TRACALITA 2018-01-18 12:30:00 25.2 17.5 0.0 5.5 970.8 SE
San Luis Río Colorado COLONIA MEDANO 2018-01-18 12:10:00 21.4 47.7 0.0 9.6 1018.1 ONO
San Luis Río Colorado ENCINAS JOHNSON 2018-01-18 12:30:00 24.2 28.5 0.0 5.5 1018.2 ONO
San Luis Río Colorado MOCTEZUMA 2018-01-18 12:30:00 23.4 28.0 0.0 10.0 1017.2 N
San Luis Río Colorado RANCHO EL PIVOTE 2018-01-18 12:30:00 22.8 28.4 0.0 10.6 1014.9 N
San Luis Río Colorado RANCHO QUIROZ 2018-01-18 12:30:00 22.2 37.2 0.0 10.4 1019.0 NNO
Sonoyta EL CORONEL 2018-01-18 12:30:00 20.6 18.5 0.0 12.2 957.9 N
Sonoyta SONOYTA (HIGAREDA) 2018-01-18 12:20:00 21.9 20.5 0.0 6.4 965.3 SO
Valle del Mayo BASCONCOBE (UT ETCHOJOA) 2018-01-18 12:30:00 24.9 50.5 0.0 4.9 NO
Valle del Mayo CAPETAMAYA 2018-01-18 12:20:00 24.0 50.7 0.0 0.0 1010.7 SO
Valle del Mayo CHIHUAHUITA 2018-01-18 12:30:00 25.8 38.5 0.0 4.8 1009.7 ONO
Valle del Mayo HUATABAMPO (LOS CUATES) 2018-01-18 12:00:00 23.3 52.5 0.0 5.7 1012.2 O
Valle del Mayo LA REGLA 2018-01-18 12:20:00 23.8 57.2 0.0 8.6 1015.6 OSO
Valle del Mayo LA VASCONIA 2018-01-18 12:30:00 23.8 48.4 0.0 3.9 1014.9 ONO
Valle del Mayo NAVOBAXIA (LAS PIOCHAS) 2018-01-18 12:20:00 25.1 43.7 0.0 5.6 1013.1 ONO
Valle del Mayo PUEBLO MAYO 2018-01-18 12:30:00 26.1 34.5 0.0 7.5 1006.6 O
Valle del Mayo SAHUARAL DE OTERO 2018-01-18 12:30:00 25.1 39.0 0.0 7.0 1014.6 NO
Valle del Mayo SEMAY 2018-01-18 12:30:00 23.3 57.6 0.0 6.3 O
Valle del Mayo TESIA 2018-01-18 12:30:00 26.2 36.3 0.0 2.8 OSO
Valle del Mayo TRES CARLOS (EL GIRASOL) 2018-01-18 12:00:00 22.1 59.3 0.0 5.7 1009.9 SO
Valle del Yaqui BLOCK 1101 2018-01-18 12:30:00 23.9 42.0 0.0 7.4 1014.1 O
Valle del Yaqui BLOCK 111 SAN JOSÉ DE BÁCUM 2018-01-18 12:30:00 24.4 38.0 0.0 5.6 1014.4 OSO
Valle del Yaqui BLOCK 1213 ATOTONILCO 2018-01-18 12:30:00 24.3 38.6 0.0 6.1 1016.1 ONO
Valle del Yaqui BlOCK 1418 (SAN VICENTE) 2018-01-18 12:20:00 23.3 48.1 0.0 6.8 995.6 OSO
Valle del Yaqui BLOCK 1423 LOTE 1 2018-01-18 12:30:00 24.8 47.1 0.0 5.5 1015.7 O
Valle del Yaqui BLOCK 1703 LOTE 6 2018-01-18 12:20:00 23.0 44.6 0.0 7.4 1013.1 NO
Valle del Yaqui BLOCK 1922 2018-01-18 12:30:00 25.5 44.1 0.0 4.8 1010.6 NO
Valle del Yaqui BLOCK 1936 SIBOLIBAMPO 2018-01-18 12:30:00 24.2 48.5 0.0 9.0 1010.6 O
Valle del Yaqui BLOCK 2010 (SANTA MARIA) 2018-01-18 12:30:00 24.1 37.1 0.0 7.1 NO
Valle del Yaqui BLOCK 2328 AGUA BLANCA 2018-01-18 12:30:00 23.5 47.5 0.0 6.9 1013.7 OSO
Valle del Yaqui BLOCK 2732 (BUAYSIACOBE) 2018-01-18 12:20:00 23.8 55.3 0.0 3.6 1009.1 OSO
Valle del Yaqui BLOCK 419 2018-01-18 12:40:00 25.0 41.3 0.0 8.9 1014.5 SO
Valle del Yaqui BLOCK 609 (CAWE) 2018-01-18 12:20:00 23.4 46.2 0.0 6.2 1008.2 ONO
Valle del Yaqui BLOCK 720 LOTE 30 2018-01-18 12:30:00 25.2 37.6 0.0 7.8 1007.8 OSO
Valle del Yaqui BLOCK 727 (CIMMYT) 2018-01-18 08:00:00 7.7 97.0 0.0 0.0 1040.6 NE
Valle del Yaqui BLOCK 731 LOTE 20 2018-01-18 12:20:00 25.0 38.0 0.0 9.6 1018.6 ONO
Valle del Yaqui BLOCK 910 (CIANO) 2018-01-18 12:20:00 23.3 37.7 0.0 5.0 1007.4 ONO
Valle del Yaqui ESTACIÓN CORRAL (SAN SALVADOR) 2018-01-18 12:30:00 26.8 22.6 0.0 5.4 1012.0 NE
Valle del Yaqui POTAM 2018-01-18 12:30:00 25.1 30.1 0.0 5.4 1014.2 NNO
Zonas Serranas BACERAC (LA MISION) 2018-01-18 12:30:00 15.9 27.1 0.0 8.1 907.1 NNE
Zonas Serranas BACOACHI 2018-01-18 12:30:00 19.6 21.4 0.0 4.2 903.1 ENE
Zonas Serranas BANÁMICHI (CADAVERACHI) 2018-01-18 12:30:00 23.0 18.0 0.0 5.5 943.3 NO
Zonas Serranas BAVIÁCORA (LA CAPILLA) 2018-01-18 12:30:00 22.1 17.6 0.0 7.1 954.5 NO
Zonas Serranas BAVISPE (LANG) 2018-01-18 12:30:00 16.2 24.7 0.0 4.6 906.9 NNE
Zonas Serranas CASA COLORADA 2018-01-18 12:30:00 28.9 19.0 0.0 5.1 994.7 NO
Zonas Serranas CHINO GORDO 2018-01-18 12:30:00 29.3 21.6 0.0 5.3 988.0 SSE
Zonas Serranas CUMPAS (LOS PINOS) 2018-01-18 12:30:00 21.4 20.1 0.0 8.3 922.0 NE
Zonas Serranas EL 15 CRISP 2018-01-18 12:30:00 24.4 14.2 0.0 7.9 918.7 ESE
Zonas Serranas EL CARRIZO 2018-01-18 08:10:00 5.9 44.1 0.0 4.6 935.7 SO
Zonas Serranas HUÁSABAS (HUEVERA) 2018-01-18 12:10:00 19.2 22.6 0.0 10.2 956.0 NE
Zonas Serranas KM9 EJIDO AGUA PRIETA 2018-01-18 12:30:00 15.0 26.9 0.0 5.3 890.1 SO
Zonas Serranas LA LADRILLERA 2018-01-18 12:30:00 23.9 13.8 0.0 6.9 919.7 ONO
Zonas Serranas LA MILPA 2018-01-18 12:30:00 17.1 23.2 0.0 14.8 862.3 ONO
Zonas Serranas LAS PALMAS 2018-01-18 12:30:00 25.1 12.9 0.0 5.2 925.3 O
Zonas Serranas LOS ALAMITOS 2018-01-18 11:00:00 22.7 16.8 0.0 0.0 934.8 OSO
Zonas Serranas LOS ALGODONES 2018-01-18 12:30:00 27.7 21.7 0.0 9.4 981.1 NNO
Zonas Serranas LOS CORRALES 2018-01-18 12:30:00 24.5 14.0 0.0 6.0 960.8 NNO
Zonas Serranas LOS COYOTES 2018-01-18 12:30:00 19.5 21.2 0.0 0.0 808.5 SSE
Zonas Serranas MATAPE 2018-01-18 12:30:00 23.6 15.1 0.0 7.0 933.7 NE
Zonas Serranas MAZATÁN (BUENOS AIRES) 2018-01-18 12:30:00 26.6 13.6 0.0 7.0 958.7 ENE
Zonas Serranas NACORI CHICO (EL MOLINO) 2018-01-18 12:30:00 19.9 21.6 0.0 5.5 925.8 SSO
Zonas Serranas QUEROBABI (EL RODEO) 2018-01-18 12:30:00 26.5 13.5 0.0 6.8 949.3 SSO
Zonas Serranas ROSARIO TESOPACO 2018-01-18 12:20:00 29.2 14.4 0.0 3.8 962.4 S
Zonas Serranas SAHUARIPA (EL CAMPITO) 2018-01-18 12:20:00 21.3 20.9 0.0 2.6 964.6 O
Zonas Serranas SANTA ADELA 2018-01-18 12:20:00 24.1 19.5 0.0 8.3 897.9 SSO
Zonas Serranas SANTA CRUZ (FRESNOS) 2018-01-18 12:30:00 20.0 17.5 0.0 5.2 870.8 E
Zonas Serranas SUAQUI GRANDE (EL TUNAL) 2018-01-18 12:30:00 29.7 13.3 0.0 3.5 987.0 OSO
Zonas Serranas TEPACHE (CUMARO) 2018-01-18 12:40:00 21.9 17.9 0.0 7.6 947.0 N
Zonas Serranas URES (SAN JOAQUIN) 2018-01-18 12:30:00 24.3 17.3 0.0 15.9 968.9 E
Zonas Serranas YECORA 2018-01-18 12:40:00 14.0 25.7 0.0 8.9 798.7 NO